createdAt,value
2023-01-13T00:02:23.331Z,-3.31
2023-01-13T00:04:50.091Z,-3.31
2023-01-13T00:07:16.911Z,-3.30
2023-01-13T00:09:43.697Z,-3.26
2023-01-13T00:12:10.459Z,-3.26
2023-01-13T00:14:37.161Z,-3.30
2023-01-13T00:17:04.173Z,-3.30
2023-01-13T00:19:30.851Z,-3.27
2023-01-13T00:21:57.709Z,-3.24
2023-01-13T00:24:24.551Z,-3.21
2023-01-13T00:26:52.760Z,-3.16
2023-01-13T00:29:19.595Z,-3.12
2023-01-13T00:31:46.332Z,-3.17
2023-01-13T00:34:13.081Z,-3.20
2023-01-13T00:36:39.991Z,-3.18
2023-01-13T00:39:06.830Z,-3.15
2023-01-13T00:41:53.529Z,-3.12
2023-01-13T00:44:20.399Z,-3.09
2023-01-13T00:46:47.146Z,-3.10
2023-01-13T00:49:14.268Z,-3.10
2023-01-13T00:51:41.009Z,-3.09
2023-01-13T00:54:08.011Z,-3.08
2023-01-13T00:56:40.278Z,-3.06
2023-01-13T00:59:10.530Z,-3.07
2023-01-13T01:01:37.411Z,-3.09
2023-01-13T01:04:04.247Z,-3.14
2023-01-13T01:06:31.080Z,-3.16
2023-01-13T01:08:58.052Z,-3.20
2023-01-13T01:11:26.841Z,-3.21
2023-01-13T01:13:54.828Z,-3.23
2023-01-13T01:16:22.913Z,-3.25
2023-01-13T01:18:50.493Z,-3.29
2023-01-13T01:21:17.559Z,-3.33
2023-01-13T01:23:44.412Z,-3.37
2023-01-13T01:26:13.453Z,-3.41
2023-01-13T01:28:40.275Z,-3.43
2023-01-13T01:31:08.268Z,-3.38
2023-01-13T01:33:35.019Z,-3.35
2023-01-13T01:36:02.535Z,-3.36
2023-01-13T01:38:29.310Z,-3.39
2023-01-13T01:40:56.063Z,-3.42
2023-01-13T01:43:42.559Z,-3.44
2023-01-13T01:46:09.337Z,-3.42
2023-01-13T01:48:38.544Z,-3.40
2023-01-13T01:51:05.417Z,-3.41
2023-01-13T01:53:32.099Z,-3.42
2023-01-13T01:55:58.843Z,-3.43
2023-01-13T01:58:31.191Z,-3.49
2023-01-13T02:00:58.447Z,-3.55
2023-01-13T02:03:25.329Z,-3.57
2023-01-13T02:05:52.073Z,-3.60
2023-01-13T02:08:18.914Z,-3.63
2023-01-13T02:10:46.678Z,-3.65
2023-01-13T02:13:13.521Z,-3.66
2023-01-13T02:16:11.195Z,-3.68
2023-01-13T02:18:45.211Z,-3.66
2023-01-13T02:21:42.832Z,-3.68
2023-01-13T02:24:37.661Z,-3.68
2023-01-13T02:27:29.487Z,-3.65
2023-01-13T02:30:34.357Z,-3.66
2023-01-13T02:33:34.497Z,-3.71
2023-01-13T02:36:27.374Z,-3.73
2023-01-13T02:38:59.685Z,-3.76
2023-01-13T02:41:47.748Z,-3.74
2023-01-13T02:44:14.562Z,-3.76
2023-01-13T02:46:44.589Z,-3.78
2023-01-13T02:49:14.833Z,-3.77
2023-01-13T02:51:41.544Z,-3.75
2023-01-13T02:54:13.913Z,-3.70
2023-01-13T02:56:43.209Z,-3.68
2023-01-13T02:59:09.959Z,-3.66
2023-01-13T03:01:36.972Z,-3.67
2023-01-13T03:04:13.852Z,-3.68
2023-01-13T03:07:04.013Z,-3.69
2023-01-13T03:09:39.855Z,-3.70
2023-01-13T03:12:12.569Z,-3.72
2023-01-13T03:14:42.103Z,-3.76
2023-01-13T03:17:22.601Z,-3.79
2023-01-13T03:20:05.323Z,-3.86
2023-01-13T03:22:33.416Z,-3.92
2023-01-13T03:25:23.237Z,-3.97
2023-01-13T03:28:08.355Z,-4.01
2023-01-13T03:30:41.122Z,-4.01
2023-01-13T03:33:30.416Z,-4.03
2023-01-13T03:36:03.391Z,-4.03
2023-01-13T03:38:44.801Z,-4.01
2023-01-13T03:41:15.808Z,-3.97
2023-01-13T03:44:06.420Z,-3.95
2023-01-13T03:46:41.658Z,-3.93
2023-01-13T03:49:08.322Z,-3.93
2023-01-13T03:51:36.047Z,-3.96
2023-01-13T03:54:05.223Z,-3.96
2023-01-13T03:56:46.531Z,-3.98
2023-01-13T03:59:22.286Z,-3.98
2023-01-13T04:02:04.158Z,-3.95
2023-01-13T04:04:36.970Z,-3.90
2023-01-13T04:07:16.908Z,-3.86
2023-01-13T04:09:51.159Z,-3.82
2023-01-13T04:13:04.363Z,-3.80
2023-01-13T04:15:36.543Z,-3.81
2023-01-13T04:18:11.623Z,-3.79
2023-01-13T04:20:39.823Z,-3.78
2023-01-13T04:23:06.681Z,-3.74
2023-01-13T04:25:34.243Z,-3.68
2023-01-13T04:28:01.267Z,-3.62
2023-01-13T04:30:28.002Z,-3.59
2023-01-13T04:32:55.071Z,-3.53
2023-01-13T04:35:21.737Z,-3.46
2023-01-13T04:37:48.656Z,-3.42
2023-01-13T04:40:15.419Z,-3.44
2023-01-13T04:42:44.285Z,-3.42
2023-01-13T04:45:11.506Z,-3.44
2023-01-13T04:47:38.491Z,-3.47
2023-01-13T04:50:05.351Z,-3.49
2023-01-13T04:52:32.071Z,-3.50
2023-01-13T04:54:58.796Z,-3.44
2023-01-13T04:57:26.165Z,-3.38
2023-01-13T04:59:52.878Z,-3.32
2023-01-13T05:02:22.529Z,-3.31
2023-01-13T05:04:49.345Z,-3.29
2023-01-13T05:07:16.592Z,-3.26
2023-01-13T05:09:43.252Z,-3.22
2023-01-13T05:12:29.323Z,-3.17
2023-01-13T05:15:14.808Z,-3.14
2023-01-13T05:17:41.542Z,-3.15
2023-01-13T05:20:09.072Z,-3.12
2023-01-13T05:22:54.563Z,-3.10
2023-01-13T05:25:28.416Z,-3.09
2023-01-13T05:27:55.773Z,-3.12
2023-01-13T05:30:24.506Z,-3.16
2023-01-13T05:32:51.268Z,-3.19
2023-01-13T05:35:18.235Z,-3.23
2023-01-13T05:37:45.160Z,-3.27
2023-01-13T05:40:31.780Z,-3.29
2023-01-13T05:43:20.423Z,-3.32
2023-01-13T05:45:47.806Z,-3.31
2023-01-13T05:48:14.573Z,-3.29
2023-01-13T05:50:41.283Z,-3.24
2023-01-13T05:53:07.978Z,-3.21
2023-01-13T05:55:34.767Z,-3.20
2023-01-13T05:58:01.475Z,-3.15
2023-01-13T06:00:28.290Z,-3.13
2023-01-13T06:02:55.028Z,-3.10
2023-01-13T06:05:21.796Z,-3.08
2023-01-13T06:07:48.409Z,-3.07
2023-01-13T10:31:56.440Z,-2.77
2023-01-13T10:34:23.976Z,-2.75
2023-01-13T10:37:08.207Z,-2.72
2023-01-13T10:39:42.164Z,-2.68
2023-01-13T10:42:14.005Z,-2.59
2023-01-13T10:44:47.301Z,-2.44
2023-01-13T10:47:28.199Z,-2.24
2023-01-13T10:50:18.571Z,-2.04
2023-01-13T10:53:16.270Z,-1.89
2023-01-13T10:55:44.076Z,-1.79
2023-01-13T10:58:21.016Z,-1.72
2023-01-13T11:00:48.906Z,-1.66
2023-01-13T11:03:21.784Z,-1.61
2023-01-13T11:05:56.416Z,-1.58
2023-01-13T11:08:31.428Z,-1.55
2023-01-13T11:10:59.088Z,-1.51
2023-01-13T11:13:57.919Z,-1.46
2023-01-13T11:16:24.627Z,-1.39
2023-01-13T11:19:02.638Z,-1.36
2023-01-13T11:21:34.902Z,-1.31
2023-01-13T11:24:06.685Z,-1.30
2023-01-13T11:26:45.079Z,-1.29
2023-01-13T11:29:17.984Z,-1.22
2023-01-13T11:31:49.567Z,-1.18
2023-01-13T11:34:31.113Z,-1.15
2023-01-13T11:36:58.963Z,-1.16
2023-01-13T11:39:44.373Z,-1.15
2023-01-13T11:42:46.511Z,-1.09
2023-01-13T11:45:41.070Z,-1.03
2023-01-13T11:48:10.673Z,-1.02
2023-01-13T11:50:56.319Z,-1.04
2023-01-13T11:53:52.957Z,-1.01
2023-01-13T11:56:41.396Z,-1.04
2023-01-13T11:59:32.647Z,-1.04
2023-01-13T12:02:22.867Z,-1.01
2023-01-13T12:04:52.694Z,-0.98
2023-01-13T12:07:53.765Z,-0.96
2023-01-13T12:10:30.128Z,-0.96
2023-01-13T12:13:02.353Z,-1.02
2023-01-13T12:15:52.968Z,-1.05
2023-01-13T12:18:29.068Z,-1.11
2023-01-13T12:21:14.147Z,-1.16
2023-01-13T12:23:46.926Z,-1.20
2023-01-13T12:26:18.584Z,-1.22
2023-01-13T12:28:52.916Z,-1.22
2023-01-13T12:31:19.736Z,-1.22
2023-01-13T12:34:05.519Z,-1.24
2023-01-13T12:36:52.723Z,-1.21
2023-01-13T12:39:30.346Z,-1.20
2023-01-13T12:42:19.295Z,-1.18
2023-01-13T12:45:06.126Z,-1.17
2023-01-13T12:47:38.071Z,-1.16
2023-01-13T12:50:26.508Z,-1.13
2023-01-13T12:52:57.660Z,-1.14
2023-01-13T12:55:33.909Z,-1.19
2023-01-13T12:58:06.786Z,-1.22
2023-01-13T13:00:41.713Z,-1.22
2023-01-13T13:03:12.376Z,-1.19
2023-01-13T13:05:48.887Z,-1.17
2023-01-13T13:08:34.989Z,-1.17
2023-01-13T13:11:33.826Z,-1.18
2023-01-13T13:14:01.178Z,-1.19
2023-01-13T13:16:29.550Z,-1.18
2023-01-13T13:19:18.204Z,-1.16
2023-01-13T13:22:17.969Z,-1.12
2023-01-13T13:24:50.925Z,-1.07
2023-01-13T13:27:18.386Z,-1.04
2023-01-13T13:30:02.223Z,-1.01
2023-01-13T13:32:52.509Z,-0.99
2023-01-13T13:35:25.204Z,-0.97
2023-01-13T13:38:31.548Z,-0.94
2023-01-13T13:41:17.135Z,-0.92
2023-01-13T13:44:03.874Z,-0.87
2023-01-13T13:46:46.973Z,-0.81
2023-01-13T13:49:17.219Z,-0.80
2023-01-13T13:51:46.691Z,-0.82
2023-01-13T13:54:16.429Z,-0.80
2023-01-13T13:56:44.366Z,-0.80
2023-01-13T18:06:59.340Z,-2.74
2023-01-13T18:09:26.758Z,-2.77
2023-01-13T18:11:53.657Z,-2.73
2023-01-13T18:14:22.482Z,-2.69
2023-01-13T18:16:49.424Z,-2.64
2023-01-13T18:19:34.964Z,-2.58
2023-01-13T18:22:20.110Z,-2.49
2023-01-13T18:25:05.545Z,-2.41
2023-01-13T18:27:34.492Z,-2.35
2023-01-13T18:30:01.544Z,-2.31
2023-01-13T18:32:32.921Z,-2.29
2023-01-13T18:35:06.734Z,-2.25
2023-01-13T18:37:36.160Z,-2.20
2023-01-13T18:40:04.030Z,-2.16
2023-01-13T18:42:49.678Z,-2.11
2023-01-13T18:45:16.596Z,-2.07
2023-01-13T18:47:43.436Z,-2.07
2023-01-13T18:50:12.538Z,-2.03
2023-01-13T18:52:39.397Z,-1.99
2023-01-13T18:55:06.104Z,-2.01
2023-01-13T18:57:33.419Z,-2.05
2023-01-13T19:00:01.066Z,-2.09
2023-01-13T19:02:30.040Z,-2.07
2023-01-13T19:04:57.575Z,-2.04
2023-01-13T19:07:28.362Z,-2.00
2023-01-13T19:09:56.032Z,-1.95
2023-01-13T19:12:26.284Z,-1.92
2023-01-13T19:14:54.429Z,-1.95
2023-01-13T19:17:21.794Z,-1.94
2023-01-13T19:19:53.899Z,-1.94
2023-01-13T19:22:24.118Z,-1.93
2023-01-13T19:24:50.830Z,-1.98
2023-01-13T19:27:18.139Z,-2.00
2023-01-13T19:29:48.620Z,-1.98
2023-01-13T19:32:20.499Z,-1.99
2023-01-13T19:34:49.284Z,-1.99
2023-01-13T19:37:16.004Z,-1.97
2023-01-13T19:39:42.979Z,-1.93
2023-01-13T19:42:30.091Z,-1.92
2023-01-13T19:45:16.253Z,-1.94
2023-01-13T19:47:45.384Z,-1.93
2023-01-13T19:50:12.268Z,-1.91
2023-01-13T19:52:38.971Z,-1.92
2023-01-13T19:55:06.278Z,-1.93
2023-01-13T19:57:32.959Z,-1.98
2023-01-13T19:59:59.588Z,-2.01
2023-01-13T20:02:31.435Z,-2.01
2023-01-13T20:05:00.022Z,-2.02
2023-01-13T20:07:28.101Z,-2.05
2023-01-13T20:09:56.481Z,-2.05
2023-01-13T20:12:24.246Z,-2.05
2023-01-13T20:14:51.194Z,-2.09
2023-01-13T20:17:19.255Z,-2.12
2023-01-13T20:19:46.006Z,-2.14
2023-01-13T20:22:12.738Z,-2.10
2023-01-13T20:24:39.436Z,-2.06
2023-01-13T20:27:06.459Z,-1.99
2023-01-13T20:29:33.263Z,-1.98
2023-01-13T20:32:00.117Z,-1.94
2023-01-13T20:34:26.773Z,-1.89
2023-01-13T20:36:53.417Z,-1.87
2023-01-13T20:39:22.099Z,-1.86
2023-01-13T20:42:07.695Z,-1.82
2023-01-13T20:44:34.361Z,-1.80
2023-01-13T20:47:01.116Z,-1.79
2023-01-13T20:49:27.889Z,-1.80
2023-01-13T20:51:54.914Z,-1.81
2023-01-13T20:54:21.934Z,-1.79
2023-01-13T20:56:48.907Z,-1.79
2023-01-13T20:59:15.882Z,-1.82
2023-01-13T21:01:42.697Z,-1.82
2023-01-13T21:04:09.809Z,-1.81
2023-01-13T21:06:36.566Z,-1.80
2023-01-13T21:09:03.506Z,-1.80
2023-01-13T21:11:49.038Z,-1.79
2023-01-13T21:14:36.204Z,-1.77
2023-01-13T21:17:02.860Z,-1.77
2023-01-13T21:19:29.636Z,-1.79
2023-01-13T21:21:56.680Z,-1.83
2023-01-13T21:24:24.323Z,-1.88
2023-01-13T21:26:58.967Z,-1.93
2023-01-13T21:29:25.587Z,-2.00
2023-01-13T21:31:54.067Z,-2.03
2023-01-13T21:34:20.802Z,-2.03
2023-01-13T21:36:47.436Z,-2.01
2023-01-13T21:39:16.017Z,-1.98
2023-01-13T21:42:01.480Z,-1.98
2023-01-13T21:44:47.076Z,-2.00
